Time;durP1;ratioP1;P1;durP2;ratioP2;P2;SDS_P1;SDS_P2;PMS_P1;PMS_P2;Temp;Humidity;BMP_temperature;BMP_pressure;BME280_temperature;BME280_humidity;BME280_pressure;Samples;Min_cycle;Max_cycle;Signal;HPM_P1;HPM_P2
2022/04/26 03:36:42;;;;;;;6.70;1.67;;;9.10;99.90;;;;;;4995720;28;20037;-61
2022/04/26 03:39:07;;;;;;;7.47;1.85;;;9.00;99.90;;;;;;4999164;28;20046;-62
2022/04/26 03:41:34;;;;;;;3.60;2.05;;;9.10;99.90;;;;;;4996558;28;20113;-61
2022/04/26 03:44:00;;;;;;;5.50;2.85;;;9.00;99.90;;;;;;4995689;28;20062;-61
2022/04/26 03:46:26;;;;;;;6.28;1.98;;;9.00;99.90;;;;;;5000516;28;20026;-63
2022/04/26 03:48:52;;;;;;;6.35;1.80;;;9.00;99.90;;;;;;4997586;28;20037;-61
2022/04/26 03:51:18;;;;;;;7.45;2.10;;;9.00;99.90;;;;;;4998697;28;20145;-62
2022/04/26 03:53:44;;;;;;;7.80;1.92;;;9.00;99.90;;;;;;4998279;28;20469;-64
2022/04/26 03:56:09;;;;;;;8.02;1.80;;;9.00;99.90;;;;;;4998107;28;20061;-62
2022/04/26 03:58:35;;;;;;;4.75;1.70;;;8.90;99.90;;;;;;5000291;28;20432;-61
2022/04/26 04:01:00;;;;;;;5.45;2.58;;;9.00;99.90;;;;;;4996693;28;20133;-61
2022/04/26 04:03:27;;;;;;;6.75;3.22;;;9.00;99.90;;;;;;4999462;28;20310;-61
2022/04/26 04:05:53;;;;;;;10.98;1.98;;;9.00;99.90;;;;;;4997035;28;20037;-60
2022/04/26 04:08:19;;;;;;;7.10;2.28;;;9.00;99.90;;;;;;4997382;28;20438;-61
2022/04/26 04:10:45;;;;;;;8.32;2.38;;;9.00;99.90;;;;;;4998448;28;20064;-61
2022/04/26 04:13:10;;;;;;;5.40;2.28;;;9.00;99.90;;;;;;4997015;28;20485;-61
2022/04/26 04:15:36;;;;;;;6.95;1.92;;;9.00;99.90;;;;;;4999696;28;20034;-61
2022/04/26 04:18:02;;;;;;;6.57;3.30;;;9.00;99.90;;;;;;4996330;28;20733;-60
2022/04/26 04:20:29;;;;;;;7.82;2.45;;;9.00;99.90;;;;;;4992850;28;20069;-62
2022/04/26 04:22:56;;;;;;;3.75;2.28;;;8.90;99.90;;;;;;4998674;28;20498;-61
2022/04/26 04:25:21;;;;;;;5.90;1.90;;;8.90;99.90;;;;;;4997509;28;20042;-61
2022/04/26 04:27:47;;;;;;;5.80;2.70;;;9.00;99.90;;;;;;4998256;28;20041;-61
2022/04/26 04:30:13;;;;;;;7.30;2.25;;;8.90;99.90;;;;;;4998612;28;20121;-61
2022/04/26 04:32:39;;;;;;;5.65;3.55;;;8.90;99.90;;;;;;4996093;28;20046;-62
2022/04/26 04:35:06;;;;;;;8.02;1.95;;;8.90;99.90;;;;;;4999131;28;20099;-61
2022/04/26 04:37:32;;;;;;;6.38;2.95;;;8.90;99.90;;;;;;4996174;28;20092;-61
2022/04/26 04:39:57;;;;;;;8.13;2.30;;;8.80;99.90;;;;;;4999712;28;20045;-61
2022/04/26 04:42:23;;;;;;;6.18;2.55;;;8.90;99.90;;;;;;4996539;28;20383;-60
2022/04/26 04:44:48;;;;;;;4.53;1.70;;;8.90;99.90;;;;;;4996824;28;20036;-61
2022/04/26 04:47:14;;;;;;;5.97;2.13;;;8.90;99.90;;;;;;4998008;28;20482;-60
2022/04/26 04:49:40;;;;;;;9.13;2.38;;;8.90;99.90;;;;;;4997612;28;20235;-60
2022/04/26 04:52:06;;;;;;;6.93;2.22;;;8.90;99.90;;;;;;4996160;28;20499;-60
2022/04/26 04:54:31;;;;;;;9.38;2.08;;;8.90;99.90;;;;;;4986291;28;20038;-61
2022/04/26 04:56:57;;;;;;;7.00;2.80;;;8.90;99.90;;;;;;4988355;28;20034;-63
2022/04/26 04:59:22;;;;;;;5.28;1.55;;;8.90;99.90;;;;;;4995387;28;20166;-62
2022/04/26 05:01:48;;;;;;;3.05;1.77;;;8.90;99.90;;;;;;4997167;28;20049;-61
2022/04/26 05:04:13;;;;;;;4.35;2.08;;;8.90;99.90;;;;;;4994174;28;20133;-62
2022/04/26 05:06:39;;;;;;;5.95;1.60;;;9.00;99.90;;;;;;4987147;28;20093;-61
2022/04/26 05:09:04;;;;;;;5.15;1.58;;;9.00;99.90;;;;;;4996495;28;20118;-61
2022/04/26 05:11:30;;;;;;;6.13;1.83;;;9.00;99.90;;;;;;4995422;28;20049;-61
2022/04/26 05:13:56;;;;;;;5.18;1.58;;;9.00;99.90;;;;;;4991040;28;20029;-63
2022/04/26 05:16:21;;;;;;;3.55;1.77;;;8.90;99.90;;;;;;4992402;28;20054;-62
2022/04/26 05:18:47;;;;;;;4.53;1.95;;;9.00;99.90;;;;;;4993048;28;20037;-61
2022/04/26 05:21:16;;;;;;;5.78;1.52;;;9.00;99.90;;;;;;4993713;28;20478;-63
2022/04/26 05:26:26;;;;;;;6.35;1.90;;;9.00;99.90;;;;;;4992838;28;20084;-60
2022/04/26 05:28:52;;;;;;;6.65;2.00;;;9.00;99.90;;;;;;4989154;28;20053;-60
2022/04/26 05:31:18;;;;;;;4.75;2.00;;;9.10;99.90;;;;;;4998202;28;20042;-63
2022/04/26 05:33:43;;;;;;;8.73;2.60;;;9.10;99.90;;;;;;4995129;28;20246;-61
2022/04/26 05:36:09;;;;;;;12.40;1.80;;;9.10;99.90;;;;;;4991481;28;20112;-61
2022/04/26 05:38:35;;;;;;;6.63;1.95;;;9.10;99.90;;;;;;4989545;28;20068;-60
2022/04/26 05:41:02;;;;;;;7.72;1.73;;;9.20;99.90;;;;;;4997254;28;20093;-62
2022/04/26 05:43:27;;;;;;;4.88;1.70;;;9.20;99.90;;;;;;4995976;28;20124;-61
2022/04/26 05:45:53;;;;;;;9.88;1.42;;;9.30;99.90;;;;;;4989941;28;20117;-62
2022/04/26 05:48:18;;;;;;;4.15;1.55;;;9.30;99.90;;;;;;4992006;28;20513;-61
2022/04/26 05:50:44;;;;;;;8.20;1.70;;;9.40;99.90;;;;;;4984916;28;20030;-62
2022/04/26 05:53:10;;;;;;;10.73;1.70;;;9.40;99.90;;;;;;4990468;28;20033;-61
2022/04/26 05:55:36;;;;;;;8.63;1.42;;;9.40;99.90;;;;;;4996027;28;20081;-60
2022/04/26 05:58:02;;;;;;;11.07;2.13;;;9.50;99.90;;;;;;4998077;28;20088;-61
2022/04/26 06:00:28;;;;;;;5.82;1.73;;;9.50;99.90;;;;;;4995404;28;20035;-60
2022/04/26 06:02:54;;;;;;;6.90;1.20;;;9.50;99.90;;;;;;4998061;28;20026;-62
2022/04/26 06:05:20;;;;;;;9.15;1.60;;;9.40;99.90;;;;;;4998020;28;20406;-61
2022/04/26 06:07:46;;;;;;;2.97;1.40;;;9.40;99.90;;;;;;5005245;28;20041;-62
2022/04/26 06:10:12;;;;;;;4.50;1.67;;;9.40;99.90;;;;;;5000372;28;20041;-62
2022/04/26 06:12:39;;;;;;;6.43;2.15;;;9.40;99.90;;;;;;4992280;28;20490;-61
2022/04/26 06:15:05;;;;;;;4.00;1.30;;;9.40;99.90;;;;;;4999760;28;20061;-60
2022/04/26 06:17:32;;;;;;;8.50;1.60;;;9.40;99.90;;;;;;4998174;28;20038;-62
2022/04/26 06:19:58;;;;;;;6.85;1.50;;;9.40;99.90;;;;;;5000765;28;20034;-62
2022/04/26 06:22:24;;;;;;;8.85;1.75;;;9.30;99.90;;;;;;5000642;28;20045;-61
2022/04/26 06:24:51;;;;;;;4.90;1.52;;;9.30;99.90;;;;;;4997400;28;20027;-60
2022/04/26 06:27:17;;;;;;;7.55;2.85;;;9.30;99.90;;;;;;5001843;28;20088;-60
2022/04/26 06:29:43;;;;;;;5.70;1.98;;;9.30;99.90;;;;;;4998987;28;20041;-61
2022/04/26 06:32:09;;;;;;;6.10;1.40;;;9.30;99.90;;;;;;4999829;28;20038;-61
2022/04/26 06:34:35;;;;;;;4.22;1.73;;;9.30;99.90;;;;;;4999694;28;20133;-61
2022/04/26 06:37:01;;;;;;;5.50;1.95;;;9.30;99.90;;;;;;4999106;28;20044;-63
2022/04/26 06:39:26;;;;;;;9.48;1.55;;;9.20;99.90;;;;;;4997880;28;20045;-61
2022/04/26 06:41:52;;;;;;;8.30;2.03;;;9.30;99.90;;;;;;5002085;28;20060;-60
2022/04/26 06:44:18;;;;;;;15.68;1.50;;;9.30;99.90;;;;;;5000854;28;20054;-61
2022/04/26 06:46:43;;;;;;;8.98;1.33;;;9.30;99.90;;;;;;4998854;28;20093;-61
2022/04/26 06:49:09;;;;;;;8.60;2.42;;;9.30;99.90;;;;;;5000046;28;20487;-62
2022/04/26 06:51:40;;;;;;;7.38;1.40;;;9.30;99.90;;;;;;4999577;28;20069;-61
2022/04/26 06:54:06;;;;;;;11.13;2.05;;;9.30;99.90;;;;;;4998522;28;20037;-61
2022/04/26 06:56:32;;;;;;;7.28;1.17;;;9.30;99.90;;;;;;5000262;28;20042;-61
2022/04/26 06:58:57;;;;;;;4.15;1.40;;;9.30;99.90;;;;;;4998517;28;20085;-61
2022/04/26 07:01:23;;;;;;;6.95;2.00;;;9.40;99.90;;;;;;5001549;28;20176;-61
2022/04/26 07:03:48;;;;;;;6.85;1.67;;;9.40;99.90;;;;;;4997252;28;20034;-61
2022/04/26 07:06:14;;;;;;;6.72;1.60;;;9.40;99.90;;;;;;5000808;28;20479;-63
2022/04/26 07:08:40;;;;;;;5.00;1.50;;;9.40;99.90;;;;;;4998320;28;20034;-60
2022/04/26 07:11:06;;;;;;;6.18;1.80;;;9.40;99.90;;;;;;4999441;28;20038;-61
2022/04/26 07:13:31;;;;;;;9.02;1.50;;;9.30;99.90;;;;;;4995565;28;20473;-60
2022/04/26 07:15:57;;;;;;;3.15;1.20;;;9.30;99.90;;;;;;4999070;28;20040;-60
2022/04/26 07:18:22;;;;;;;5.38;2.42;;;9.40;99.90;;;;;;4998041;28;20434;-61
2022/04/26 07:20:48;;;;;;;8.35;1.45;;;9.30;99.90;;;;;;4997568;28;20035;-61
2022/04/26 07:23:14;;;;;;;4.10;1.08;;;9.20;99.90;;;;;;5000072;28;20065;-62
2022/04/26 07:25:40;;;;;;;7.55;1.77;;;9.20;99.90;;;;;;4998241;28;20132;-61
2022/04/26 07:28:06;;;;;;;6.40;1.55;;;9.10;99.90;;;;;;4999459;28;20045;-61
2022/04/26 07:30:35;;;;;;;4.03;0.98;;;9.20;99.90;;;;;;4999378;28;20482;-61
2022/04/26 07:35:50;;;;;;;7.50;1.30;;;9.20;99.90;;;;;;4997513;28;20057;-61
2022/04/26 07:38:16;;;;;;;4.53;1.95;;;9.30;99.90;;;;;;5000978;28;20095;-62
2022/04/26 07:40:42;;;;;;;7.45;1.52;;;9.30;99.90;;;;;;5000517;28;20395;-62
2022/04/26 07:43:08;;;;;;;11.35;2.38;;;9.30;99.90;;;;;;4998592;28;20034;-61
2022/04/26 07:45:41;;;;;;;9.27;1.30;;;9.50;99.90;;;;;;4999193;28;20560;-61
2022/04/26 07:48:08;;;;;;;6.93;2.10;;;9.60;99.90;;;;;;4999597;28;20184;-62
2022/04/26 07:50:35;;;;;;;6.13;1.27;;;9.70;99.90;;;;;;4998714;28;20037;-61
2022/04/26 07:53:01;;;;;;;9.43;2.85;;;9.80;99.90;;;;;;4997539;28;20509;-61
2022/04/26 07:55:28;;;;;;;7.32;1.70;;;9.80;99.90;;;;;;4999579;28;20034;-60
2022/04/26 07:57:54;;;;;;;2.88;1.08;;;9.90;99.90;;;;;;4989250;28;20527;-62
2022/04/26 08:00:19;;;;;;;2.67;1.13;;;10.00;99.90;;;;;;4997173;28;20041;-62
2022/04/26 08:02:45;;;;;;;4.15;1.70;;;10.30;99.90;;;;;;4996107;28;20034;-61
2022/04/26 08:05:12;;;;;;;10.48;1.48;;;10.50;99.90;;;;;;4999706;28;20026;-61
2022/04/26 08:07:41;;;;;;;11.38;2.22;;;10.70;99.90;;;;;;4994172;28;20030;-62
2022/04/26 08:10:11;;;;;;;6.65;1.13;;;10.70;99.90;;;;;;4996715;28;20103;-61
2022/04/26 08:12:41;;;;;;;4.30;1.13;;;10.90;99.90;;;;;;4998224;28;20050;-61
2022/04/26 08:15:08;;;;;;;4.55;1.05;;;11.30;99.90;;;;;;4997441;28;20501;-60
2022/04/26 08:17:34;;;;;;;4.05;1.35;;;11.50;99.90;;;;;;4998560;28;20853;-61
2022/04/26 08:20:00;;;;;;;3.85;1.60;;;11.70;99.90;;;;;;4998371;28;20049;-62
2022/04/26 08:22:25;;;;;;;5.20;1.75;;;11.80;99.90;;;;;;4996609;28;20063;-62
2022/04/26 08:27:36;;;;;;;6.40;1.00;;;12.20;99.90;;;;;;4997222;28;20576;-61
2022/04/26 08:30:03;;;;;;;3.17;0.90;;;12.00;99.90;;;;;;4998141;28;20093;-61
2022/04/26 08:32:43;;;;;;;6.13;0.90;;;11.90;99.90;;;;;;4997329;28;20030;-60
2022/04/26 08:35:11;;;;;;;6.50;1.42;;;11.80;99.90;;;;;;4999015;28;20029;-61
2022/04/26 08:37:37;;;;;;;5.05;0.90;;;11.80;99.90;;;;;;4996795;28;20092;-61
2022/04/26 08:40:06;;;;;;;4.15;1.10;;;11.90;99.90;;;;;;4998068;28;20041;-62
2022/04/26 08:42:40;;;;;;;8.50;1.70;;;12.00;99.90;;;;;;4997075;28;20077;-60
2022/04/26 08:45:08;;;;;;;2.17;0.93;;;12.00;99.90;;;;;;4994323;28;20138;-61
2022/04/26 08:53:04;;;;;;;8.95;1.13;;;12.40;99.90;;;;;;4999081;28;20471;-62
2022/04/26 08:55:33;;;;;;;5.60;1.23;;;12.30;99.90;;;;;;4998208;28;20120;-61
2022/04/26 08:57:59;;;;;;;5.28;1.10;;;12.20;99.90;;;;;;4995289;28;20518;-62
2022/04/26 09:00:25;;;;;;;8.30;1.15;;;12.10;99.90;;;;;;4992958;28;20034;-62
2022/04/26 09:03:05;;;;;;;3.10;1.30;;;12.30;99.90;;;;;;4997441;28;20486;-61
2022/04/26 09:05:31;;;;;;;6.03;1.27;;;12.40;99.90;;;;;;4998181;28;20042;-61
2022/04/26 09:07:58;;;;;;;1.88;1.05;;;12.60;99.90;;;;;;4994437;28;20485;-61
2022/04/26 09:10:25;;;;;;;8.35;1.08;;;12.70;99.90;;;;;;4993832;28;20038;-61
2022/04/26 09:13:20;;;;;;;4.15;1.50;;;12.90;99.90;;;;;;4996518;28;20401;-61
2022/04/26 09:15:57;;;;;;;6.47;1.05;;;12.70;99.90;;;;;;4992403;28;20038;-61
2022/04/26 09:18:30;;;;;;;2.65;0.80;;;12.60;99.90;;;;;;4996709;28;20390;-62
2022/04/26 09:21:09;;;;;;;3.40;1.10;;;12.60;99.90;;;;;;4997021;28;20042;-61
2022/04/26 09:23:38;;;;;;;4.43;1.00;;;12.90;99.90;;;;;;4995942;28;20063;-61
2022/04/26 09:26:12;;;;;;;2.25;0.98;;;13.00;99.90;;;;;;4997026;28;20118;-61
2022/04/26 09:28:49;;;;;;;5.47;1.13;;;13.00;99.90;;;;;;4994028;28;20038;-61
2022/04/26 09:31:19;;;;;;;2.40;0.95;;;12.70;99.90;;;;;;4991969;28;20065;-63
2022/04/26 09:33:49;;;;;;;2.95;0.75;;;12.50;99.90;;;;;;4991975;28;20042;-60
2022/04/26 09:36:16;;;;;;;3.55;1.10;;;12.30;99.90;;;;;;4998160;28;20040;-62
2022/04/26 09:38:50;;;;;;;2.42;0.77;;;12.40;99.90;;;;;;4995992;28;20046;-61
2022/04/26 09:41:16;;;;;;;10.00;1.30;;;12.50;99.90;;;;;;4996168;28;20819;-60
2022/04/26 09:43:42;;;;;;;8.70;1.10;;;12.70;99.90;;;;;;5002266;28;20180;-61
2022/04/26 09:46:08;;;;;;;3.40;0.80;;;12.70;99.90;;;;;;5001474;28;20041;-61
2022/04/26 09:48:40;;;;;;;3.35;0.88;;;12.80;99.90;;;;;;4995651;28;20038;-61
2022/04/26 09:51:07;;;;;;;3.58;0.90;;;12.80;99.90;;;;;;5001970;28;20056;-61
2022/04/26 09:53:34;;;;;;;10.02;1.10;;;12.90;99.90;;;;;;4998573;28;20137;-60
2022/04/26 09:56:03;;;;;;;4.68;1.00;;;12.90;99.90;;;;;;5000039;28;20037;-61
2022/04/26 09:58:29;;;;;;;2.92;1.10;;;12.90;99.90;;;;;;4999410;28;20038;-63
2022/04/26 10:01:01;;;;;;;2.28;0.60;;;13.00;99.90;;;;;;5000767;28;20022;-61
2022/04/26 10:03:39;;;;;;;3.17;0.80;;;12.90;99.90;;;;;;4999866;28;20037;-62
2022/04/26 10:06:06;;;;;;;2.78;0.63;;;12.90;99.90;;;;;;5002104;28;20496;-61
2022/04/26 10:08:38;;;;;;;3.58;0.73;;;13.00;99.90;;;;;;4998022;28;20165;-61
2022/04/26 10:11:04;;;;;;;2.03;0.60;;;13.20;99.90;;;;;;5001741;28;20470;-60
2022/04/26 10:13:35;;;;;;;3.03;0.70;;;13.20;99.60;;;;;;4999356;28;20057;-61
2022/04/26 10:16:05;;;;;;;;;;;13.20;99.90;;;;;;4997904;28;20054;-61
2022/04/26 10:18:45;;;;;;;6.57;0.57;;;13.30;99.60;;;;;;4999881;28;20400;-61
2022/04/26 10:21:32;;;;;;;4.80;1.00;;;13.20;99.60;;;;;;4995041;28;20062;-61
2022/04/26 10:24:01;;;;;;;7.32;2.22;;;13.20;99.90;;;;;;4997016;28;20509;-60
2022/04/26 10:26:27;;;;;;;4.75;1.23;;;13.20;99.90;;;;;;5000455;28;20092;-62
2022/04/26 10:29:06;;;;;;;3.15;0.75;;;13.20;99.90;;;;;;4998619;28;20030;-62
2022/04/26 10:31:37;;;;;;;2.42;1.20;;;13.20;99.90;;;;;;5001875;28;20506;-61
2022/04/26 10:34:16;;;;;;;5.70;1.15;;;13.30;99.90;;;;;;4998641;28;20061;-61
2022/04/26 10:36:43;;;;;;;3.92;1.30;;;13.30;99.90;;;;;;4996028;28;20045;-60
2022/04/26 10:39:15;;;;;;;6.15;1.30;;;13.50;99.90;;;;;;5001976;28;20040;-61
2022/04/26 10:41:45;;;;;;;2.97;0.80;;;13.70;99.90;;;;;;4995236;28;20099;-60
2022/04/26 10:44:16;;;;;;;5.03;1.20;;;13.70;99.30;;;;;;4993811;28;20038;-61
2022/04/26 10:46:42;;;;;;;3.85;0.80;;;13.60;99.60;;;;;;5001931;28;20280;-63
2022/04/26 10:49:25;;;;;;;4.00;1.33;;;13.70;99.80;;;;;;4998092;28;20410;-61
2022/04/26 10:51:51;;;;;;;3.88;0.90;;;13.70;99.50;;;;;;4995856;28;20125;-60
2022/04/26 10:54:47;;;;;;;2.17;1.00;;;13.70;99.00;;;;;;4998874;28;20032;-61
2022/04/26 10:57:16;;;;;;;3.40;0.90;;;13.50;98.80;;;;;;4994621;28;20490;-62
2022/04/26 10:59:46;;;;;;;3.23;1.43;;;13.40;99.30;;;;;;4998982;28;20034;-61
2022/04/26 11:02:18;;;;;;;2.33;0.90;;;13.40;99.90;;;;;;5001021;28;20034;-60
2022/04/26 11:04:45;;;;;;;2.28;1.15;;;13.50;99.90;;;;;;4998585;28;20042;-61
2022/04/26 11:07:11;;;;;;;3.28;0.80;;;13.60;99.10;;;;;;4999004;28;20113;-62
2022/04/26 11:09:43;;;;;;;6.90;1.00;;;13.60;98.50;;;;;;4996931;28;20114;-62
2022/04/26 11:12:08;;;;;;;3.47;0.80;;;13.60;99.00;;;;;;4994145;28;20506;-61
2022/04/26 11:14:40;;;;;;;2.53;0.80;;;13.60;99.20;;;;;;4993395;28;20042;-62
2022/04/26 11:17:06;;;;;;;3.95;1.30;;;13.60;98.80;;;;;;4993906;28;20034;-60
2022/04/26 11:19:36;;;;;;;4.40;0.90;;;13.70;98.20;;;;;;5001242;28;20041;-61
2022/04/26 11:22:07;;;;;;;3.70;0.68;;;13.60;98.60;;;;;;4997679;28;20518;-62
2022/04/26 11:30:04;;;;;;;3.08;1.15;;;13.70;96.00;;;;;;5000439;28;20088;-61
2022/04/26 11:32:31;;;;;;;2.95;0.45;;;13.70;95.90;;;;;;5000876;28;20041;-61
2022/04/26 11:34:57;;;;;;;2.95;0.70;;;13.90;95.10;;;;;;4998114;28;20247;-61
2022/04/26 11:37:23;;;;;;;3.28;1.00;;;14.00;94.20;;;;;;4998091;28;20140;-62
2022/04/26 11:39:49;;;;;;;3.05;0.60;;;13.90;94.50;;;;;;4999886;28;20041;-62
2022/04/26 11:42:16;;;;;;;3.72;0.45;;;13.90;93.80;;;;;;4996914;28;20061;-61
2022/04/26 11:44:58;;;;;;;1.45;0.40;;;13.70;93.50;;;;;;4998222;28;20414;-61
2022/04/26 11:47:43;;;;;;;2.42;0.55;;;13.50;93.70;;;;;;4997818;28;20043;-61
2022/04/26 11:50:26;;;;;;;1.10;0.50;;;13.50;95.30;;;;;;4994067;28;20043;-61
2022/04/26 11:52:58;;;;;;;2.85;0.73;;;13.40;94.60;;;;;;4995273;28;20089;-61
2022/04/26 11:55:31;;;;;;;1.98;1.05;;;13.40;95.90;;;;;;4996700;28;20030;-61
2022/04/26 11:58:09;;;;;;;4.63;1.00;;;13.50;96.10;;;;;;4999670;28;20041;-61
2022/04/26 12:00:35;;;;;;;2.90;0.70;;;13.60;94.70;;;;;;4993804;28;20458;-61
2022/04/26 12:03:02;;;;;;;2.47;0.60;;;13.60;93.00;;;;;;4999218;28;20037;-61
2022/04/26 12:05:28;;;;;;;2.63;0.60;;;13.70;94.00;;;;;;4997387;28;20085;-61
2022/04/26 12:07:55;;;;;;;0.95;0.43;;;13.70;94.40;;;;;;5000466;28;20050;-61
2022/04/26 12:10:34;;;;;;;3.55;0.60;;;13.60;93.30;;;;;;4999967;28;20038;-61
2022/04/26 12:13:02;;;;;;;2.28;0.50;;;13.60;93.70;;;;;;4999575;28;20065;-61
2022/04/26 12:15:30;;;;;;;1.60;0.77;;;13.50;92.10;;;;;;4996481;28;20132;-61
2022/04/26 12:18:10;;;;;;;3.15;0.50;;;13.50;92.60;;;;;;4999194;28;20049;-62
2022/04/26 12:20:37;;;;;;;1.83;1.00;;;13.50;93.00;;;;;;4993365;28;20030;-61
2022/04/26 12:23:05;;;;;;;4.00;0.50;;;13.50;91.70;;;;;;4994949;28;20045;-61
2022/04/26 12:25:33;;;;;;;0.68;0.50;;;13.60;92.60;;;;;;4999888;28;20038;-60
2022/04/26 12:28:07;;;;;;;0.65;0.40;;;13.60;92.20;;;;;;4996384;28;20037;-60
2022/04/26 12:30:37;;;;;;;3.58;0.70;;;13.60;91.30;;;;;;4993414;28;20497;-61
2022/04/26 12:33:04;;;;;;;1.95;0.40;;;13.50;90.60;;;;;;4991920;28;20172;-61
2022/04/26 12:35:29;;;;;;;1.48;0.52;;;13.50;91.20;;;;;;4991323;28;20418;-60
2022/04/26 12:38:05;;;;;;;2.33;0.55;;;13.50;90.80;;;;;;4998837;28;20034;-61
2022/04/26 12:40:31;;;;;;;1.58;0.52;;;13.60;90.20;;;;;;4991610;28;20089;-61
2022/04/26 12:42:57;;;;;;;2.50;0.40;;;13.70;90.20;;;;;;4996407;28;20117;-61
2022/04/26 12:45:23;;;;;;;0.65;0.30;;;13.70;90.00;;;;;;4997644;28;20043;-62
2022/04/26 12:51:24;;;;;;;1.73;0.30;;;13.70;88.00;;;;;;4998124;28;20044;-62
2022/04/26 12:53:51;;;;;;;2.65;0.50;;;13.60;88.30;;;;;;4996651;28;20026;-61
2022/04/26 12:56:18;;;;;;;2.95;0.88;;;13.50;89.80;;;;;;4998050;28;20166;-61
2022/04/26 12:58:46;;;;;;;2.00;0.77;;;13.60;87.80;;;;;;4998107;28;20022;-62
2022/04/26 13:01:13;;;;;;;1.35;0.50;;;13.60;90.20;;;;;;4995853;28;20027;-61
2022/04/26 13:03:42;;;;;;;3.72;0.60;;;13.70;90.10;;;;;;4996192;28;20038;-61
2022/04/26 13:06:12;;;;;;;1.75;0.75;;;13.60;90.10;;;;;;4998546;28;20038;-61
2022/04/26 13:08:43;;;;;;;0.80;0.50;;;13.60;90.70;;;;;;4993539;28;20042;-62
2022/04/26 13:11:09;;;;;;;4.15;0.70;;;13.60;90.30;;;;;;4997885;28;20038;-60
2022/04/26 13:13:39;;;;;;;1.67;0.50;;;13.70;90.10;;;;;;4995714;28;20038;-60
2022/04/26 13:16:05;;;;;;;5.70;0.30;;;13.60;91.00;;;;;;5001955;28;20112;-62
2022/04/26 13:18:32;;;;;;;5.03;0.47;;;13.60;90.70;;;;;;5004547;28;20393;-61
2022/04/26 13:20:58;;;;;;;2.00;0.77;;;13.60;90.80;;;;;;4995306;28;20038;-62
2022/04/26 13:23:25;;;;;;;1.55;0.75;;;13.60;91.20;;;;;;5002549;28;20034;-61
2022/04/26 13:25:52;;;;;;;3.45;1.58;;;13.60;91.20;;;;;;5000631;28;20042;-61
2022/04/26 13:28:18;;;;;;;2.88;0.90;;;13.70;91.20;;;;;;5001741;28;20030;-61
2022/04/26 13:30:44;;;;;;;1.77;0.40;;;13.70;90.90;;;;;;5001004;28;20033;-62
2022/04/26 13:33:11;;;;;;;2.35;0.77;;;13.70;91.10;;;;;;4998652;28;20035;-62
2022/04/26 13:35:37;;;;;;;4.47;1.10;;;13.80;91.70;;;;;;5002424;28;20089;-62
2022/04/26 13:38:11;;;;;;;2.20;0.45;;;13.90;91.20;;;;;;4999851;28;20037;-61
2022/04/26 13:40:41;;;;;;;4.38;0.80;;;13.90;91.30;;;;;;5002872;28;20110;-61
2022/04/26 13:43:08;;;;;;;2.00;0.70;;;14.00;90.20;;;;;;4999815;28;20503;-60
2022/04/26 13:45:34;;;;;;;2.00;0.73;;;14.00;90.60;;;;;;5002927;28;20037;-61
2022/04/26 13:48:01;;;;;;;5.32;0.75;;;13.90;90.60;;;;;;4997580;28;20062;-61
2022/04/26 13:50:29;;;;;;;3.25;0.60;;;13.80;90.80;;;;;;5003430;28;20503;-61
2022/04/26 13:52:54;;;;;;;2.13;0.80;;;13.90;91.60;;;;;;4997552;28;20046;-61
2022/04/26 13:55:20;;;;;;;2.58;0.60;;;13.90;91.60;;;;;;5001998;28;20391;-61
2022/04/26 13:57:46;;;;;;;5.00;0.77;;;13.90;91.60;;;;;;5000452;28;20046;-62
2022/04/26 14:00:15;;;;;;;2.65;0.68;;;13.80;91.00;;;;;;5000253;28;20093;-61
2022/04/26 14:02:41;;;;;;;5.82;1.25;;;13.80;91.40;;;;;;5000444;28;20510;-61
2022/04/26 14:05:08;;;;;;;4.47;1.17;;;13.60;92.60;;;;;;5000668;28;20030;-61
2022/04/26 14:07:33;;;;;;;3.38;1.00;;;13.60;93.50;;;;;;5001715;28;20044;-62
2022/04/26 14:09:59;;;;;;;2.90;0.90;;;13.70;93.30;;;;;;4996362;28;20114;-61
2022/04/26 14:12:24;;;;;;;3.03;0.90;;;13.70;92.80;;;;;;5001601;28;20038;-61
2022/04/26 14:23:02;;;;;;;4.78;1.00;;;13.70;93.40;;;;;;4998896;28;20378;-60
2022/04/26 14:25:28;;;;;;;2.10;0.80;;;13.70;93.40;;;;;;4998387;28;20038;-61
2022/04/26 14:27:54;;;;;;;4.90;0.80;;;13.60;94.10;;;;;;5001628;28;20760;-61
2022/04/26 14:30:19;;;;;;;2.05;0.88;;;13.40;93.90;;;;;;4999072;28;20092;-61
2022/04/26 14:32:45;;;;;;;2.55;0.80;;;13.40;94.40;;;;;;5000205;28;20178;-60
2022/04/26 14:35:11;;;;;;;3.78;0.95;;;13.20;93.60;;;;;;4999515;28;20497;-61
2022/04/26 14:37:37;;;;;;;8.15;0.93;;;13.10;93.90;;;;;;4998231;28;20491;-61
2022/04/26 14:40:04;;;;;;;3.10;1.17;;;13.10;94.60;;;;;;4998035;28;20042;-61
2022/04/26 14:42:30;;;;;;;4.18;0.93;;;13.20;95.10;;;;;;5000472;28;20042;-61
2022/04/26 14:44:57;;;;;;;3.22;1.50;;;13.30;95.10;;;;;;4996874;28;20038;-62
2022/04/26 14:47:26;;;;;;;2.53;0.80;;;13.30;94.50;;;;;;4996987;28;20069;-61
2022/04/26 14:49:53;;;;;;;1.90;0.77;;;13.40;94.60;;;;;;4994499;28;20038;-62
2022/04/26 14:52:21;;;;;;;1.90;1.10;;;13.40;95.10;;;;;;4996412;28;20038;-62
2022/04/26 14:54:47;;;;;;;4.03;0.88;;;13.30;95.10;;;;;;4998773;28;20042;-61
2022/04/26 14:57:17;;;;;;;2.88;1.30;;;13.20;95.10;;;;;;4993144;28;20047;-62
2022/04/26 14:59:46;;;;;;;5.28;1.00;;;13.10;95.60;;;;;;5000750;28;20065;-61
2022/04/26 15:02:13;;;;;;;2.85;1.10;;;13.10;95.30;;;;;;4997395;28;20038;-61
2022/04/26 15:04:40;;;;;;;4.45;0.90;;;13.20;95.10;;;;;;4999173;28;20073;-61
2022/04/26 15:07:05;;;;;;;2.25;1.08;;;13.10;95.60;;;;;;4997995;28;20042;-60
2022/04/26 15:09:43;;;;;;;6.88;1.95;;;13.00;95.20;;;;;;4997363;28;20134;-62
2022/04/26 15:17:40;;;;;;;6.55;1.23;;;13.30;95.30;;;;;;4998689;28;20045;-61
2022/04/26 15:20:06;;;;;;;2.28;0.82;;;13.40;95.10;;;;;;4998811;28;20564;-60
2022/04/26 15:22:32;;;;;;;1.85;1.00;;;13.30;94.40;;;;;;4998027;28;20494;-60
2022/04/26 15:24:58;;;;;;;5.30;1.23;;;13.20;94.80;;;;;;4998445;28;20049;-61
2022/04/26 15:27:24;;;;;;;1.73;1.15;;;13.10;94.60;;;;;;4998038;28;20041;-61
2022/04/26 15:29:50;;;;;;;1.75;1.10;;;13.00;94.90;;;;;;5000967;28;20102;-63
2022/04/26 15:32:15;;;;;;;4.03;1.10;;;13.00;95.40;;;;;;4997473;28;20050;-62
2022/04/26 15:34:41;;;;;;;4.68;1.20;;;12.90;95.90;;;;;;4999322;28;20533;-61
2022/04/26 15:37:07;;;;;;;2.75;1.30;;;13.00;95.60;;;;;;4997925;28;20062;-61
2022/04/26 15:39:33;;;;;;;1.88;0.98;;;12.90;95.50;;;;;;4998745;28;20034;-61
2022/04/26 15:41:59;;;;;;;5.88;1.02;;;12.90;95.20;;;;;;4998746;28;20482;-61
2022/04/26 15:44:25;;;;;;;1.98;0.82;;;12.90;95.50;;;;;;4997982;28;20069;-61
2022/04/26 15:46:56;;;;;;;3.38;0.70;;;12.80;95.90;;;;;;4995397;28;20022;-61
2022/04/26 15:49:23;;;;;;;4.15;1.00;;;12.90;96.40;;;;;;4993617;28;20050;-61
2022/04/26 15:51:48;;;;;;;3.95;1.50;;;12.90;95.60;;;;;;5000510;28;20056;-62
2022/04/26 15:54:15;;;;;;;1.52;0.75;;;12.80;95.70;;;;;;4996455;28;20038;-63
2022/04/26 15:56:42;;;;;;;8.70;1.73;;;12.80;96.30;;;;;;5000091;28;20038;-61
2022/04/26 15:59:09;;;;;;;2.50;1.20;;;12.70;96.70;;;;;;4997968;28;20038;-61
2022/04/26 16:01:36;;;;;;;3.95;1.10;;;12.70;96.40;;;;;;4998890;28;20034;-62
2022/04/26 16:04:02;;;;;;;4.68;1.23;;;12.70;96.30;;;;;;4995150;28;20038;-62
2022/04/26 16:06:27;;;;;;;2.28;0.82;;;12.60;95.90;;;;;;4999917;28;20046;-64
2022/04/26 16:20:28;;;;;;;2.63;0.90;;;12.60;96.20;;;;;;4995857;28;21018;-63
2022/04/26 16:22:35;;;;;;;3.85;0.90;;;12.60;96.10;;;;;;4997084;28;20532;-61
2022/04/26 16:25:01;;;;;;;5.65;1.20;;;12.60;96.50;;;;;;4997418;28;20030;-62
2022/04/26 16:27:27;;;;;;;2.97;1.10;;;12.50;96.30;;;;;;4999366;28;20415;-62
2022/04/26 16:29:52;;;;;;;5.28;1.08;;;12.50;96.10;;;;;;4996980;28;20030;-60
2022/04/26 16:32:18;;;;;;;2.33;0.82;;;12.50;96.20;;;;;;4999297;28;20154;-61
2022/04/26 16:34:43;;;;;;;4.45;1.40;;;12.40;95.90;;;;;;4995173;28;20034;-61
2022/04/26 16:37:09;;;;;;;6.38;1.48;;;12.30;96.10;;;;;;4998644;28;20066;-60
2022/04/26 16:39:35;;;;;;;3.35;0.80;;;12.30;96.60;;;;;;4998000;28;20413;-61
2022/04/26 16:42:00;;;;;;;2.20;0.70;;;12.20;96.60;;;;;;4997178;28;20038;-60
2022/04/26 16:44:26;;;;;;;4.05;1.05;;;12.10;97.00;;;;;;4997068;28;20041;-61
2022/04/26 16:46:51;;;;;;;6.07;1.00;;;12.00;97.00;;;;;;4994863;28;20042;-60
2022/04/26 16:49:17;;;;;;;6.00;1.30;;;12.00;96.80;;;;;;4999440;28;20589;-61
2022/04/26 16:51:42;;;;;;;2.58;1.20;;;12.00;97.20;;;;;;4995991;28;20042;-61
2022/04/26 16:54:08;;;;;;;4.10;0.98;;;11.90;97.60;;;;;;4997811;28;20035;-61
2022/04/26 16:56:35;;;;;;;2.85;1.08;;;11.80;97.70;;;;;;4997755;28;20042;-64
2022/04/26 16:59:00;;;;;;;1.55;0.70;;;11.80;97.70;;;;;;4997476;28;20136;-61
2022/04/26 17:01:26;;;;;;;2.50;1.10;;;11.80;98.10;;;;;;4998259;28;20541;-62
2022/04/26 17:03:51;;;;;;;2.55;0.82;;;11.90;97.70;;;;;;4995268;28;20445;-61
2022/04/26 17:06:18;;;;;;;3.40;1.17;;;11.90;97.70;;;;;;4999267;28;20034;-62
2022/04/26 17:08:44;;;;;;;6.40;1.02;;;11.90;97.90;;;;;;4991033;28;20791;-63
2022/04/26 17:13:54;;;;;;;3.38;0.90;;;12.10;97.70;;;;;;4993231;28;20038;-61
2022/04/26 17:16:21;;;;;;;3.28;0.98;;;12.10;97.30;;;;;;4997276;28;20483;-62
2022/04/26 17:18:46;;;;;;;1.85;0.82;;;12.10;97.00;;;;;;4996126;28;20041;-63